sensor_id;sensor_type;location;lat;lon;timestamp;P1;durP1;ratioP1;P2;durP2;ratioP2
49728;SDS011;35617;50.714;7.114;2022-07-06T00:01:21;6.70;;;1.98;;
49728;SDS011;35617;50.714;7.114;2022-07-06T00:03:47;5.13;;;1.73;;
49728;SDS011;35617;50.714;7.114;2022-07-06T00:06:12;5.00;;;1.50;;
49728;SDS011;35617;50.714;7.114;2022-07-06T00:08:38;5.68;;;1.90;;
49728;SDS011;35617;50.714;7.114;2022-07-06T00:11:04;6.80;;;1.65;;
49728;SDS011;35617;50.714;7.114;2022-07-06T00:13:30;6.10;;;1.83;;
49728;SDS011;35617;50.714;7.114;2022-07-06T00:15:56;5.95;;;1.85;;
49728;SDS011;35617;50.714;7.114;2022-07-06T00:18:22;5.57;;;1.80;;
49728;SDS011;35617;50.714;7.114;2022-07-06T00:20:47;6.22;;;2.00;;
49728;SDS011;35617;50.714;7.114;2022-07-06T00:23:13;6.88;;;2.10;;
49728;SDS011;35617;50.714;7.114;2022-07-06T00:25:39;5.28;;;1.85;;
49728;SDS011;35617;50.714;7.114;2022-07-06T00:28:04;4.40;;;1.85;;
49728;SDS011;35617;50.714;7.114;2022-07-06T00:30:30;6.15;;;1.90;;
49728;SDS011;35617;50.714;7.114;2022-07-06T00:32:56;7.57;;;1.90;;
49728;SDS011;35617;50.714;7.114;2022-07-06T00:35:23;7.38;;;2.50;;
49728;SDS011;35617;50.714;7.114;2022-07-06T00:37:49;5.13;;;2.47;;
49728;SDS011;35617;50.714;7.114;2022-07-06T00:40:15;6.15;;;2.15;;
49728;SDS011;35617;50.714;7.114;2022-07-06T00:42:41;5.88;;;2.30;;
49728;SDS011;35617;50.714;7.114;2022-07-06T00:45:09;5.30;;;2.30;;
49728;SDS011;35617;50.714;7.114;2022-07-06T00:47:36;6.53;;;1.90;;
49728;SDS011;35617;50.714;7.114;2022-07-06T00:50:03;6.28;;;2.30;;
49728;SDS011;35617;50.714;7.114;2022-07-06T00:52:51;8.15;;;2.05;;
49728;SDS011;35617;50.714;7.114;2022-07-06T00:55:19;5.05;;;1.95;;
49728;SDS011;35617;50.714;7.114;2022-07-06T00:57:46;6.05;;;1.80;;
49728;SDS011;35617;50.714;7.114;2022-07-06T01:00:14;6.28;;;2.03;;
49728;SDS011;35617;50.714;7.114;2022-07-06T01:02:42;5.95;;;2.00;;
49728;SDS011;35617;50.714;7.114;2022-07-06T01:05:09;4.55;;;1.85;;
49728;SDS011;35617;50.714;7.114;2022-07-06T01:07:35;7.50;;;2.38;;
49728;SDS011;35617;50.714;7.114;2022-07-06T01:10:02;5.25;;;1.92;;
49728;SDS011;35617;50.714;7.114;2022-07-06T01:12:29;5.57;;;2.15;;
49728;SDS011;35617;50.714;7.114;2022-07-06T01:14:55;6.50;;;2.10;;
49728;SDS011;35617;50.714;7.114;2022-07-06T01:17:21;6.00;;;1.90;;
49728;SDS011;35617;50.714;7.114;2022-07-06T01:19:48;4.88;;;2.10;;
49728;SDS011;35617;50.714;7.114;2022-07-06T01:22:13;5.03;;;1.80;;
49728;SDS011;35617;50.714;7.114;2022-07-06T01:24:39;4.57;;;1.83;;
49728;SDS011;35617;50.714;7.114;2022-07-06T01:27:05;5.93;;;2.20;;
49728;SDS011;35617;50.714;7.114;2022-07-06T01:29:31;5.22;;;2.00;;
49728;SDS011;35617;50.714;7.114;2022-07-06T01:31:57;6.15;;;2.05;;
49728;SDS011;35617;50.714;7.114;2022-07-06T01:34:23;6.35;;;2.05;;
49728;SDS011;35617;50.714;7.114;2022-07-06T01:36:49;4.95;;;1.83;;
49728;SDS011;35617;50.714;7.114;2022-07-06T01:39:14;6.43;;;1.80;;
49728;SDS011;35617;50.714;7.114;2022-07-06T01:41:40;6.18;;;2.17;;
49728;SDS011;35617;50.714;7.114;2022-07-06T01:44:06;4.70;;;2.10;;
49728;SDS011;35617;50.714;7.114;2022-07-06T01:46:33;6.85;;;2.30;;
49728;SDS011;35617;50.714;7.114;2022-07-06T01:48:58;6.53;;;2.20;;
49728;SDS011;35617;50.714;7.114;2022-07-06T01:51:24;8.00;;;2.40;;
49728;SDS011;35617;50.714;7.114;2022-07-06T01:53:50;5.95;;;2.30;;
49728;SDS011;35617;50.714;7.114;2022-07-06T01:56:17;5.57;;;1.92;;
49728;SDS011;35617;50.714;7.114;2022-07-06T01:58:46;6.28;;;2.28;;
49728;SDS011;35617;50.714;7.114;2022-07-06T02:01:17;5.18;;;2.25;;
49728;SDS011;35617;50.714;7.114;2022-07-06T02:03:44;5.55;;;2.28;;
49728;SDS011;35617;50.714;7.114;2022-07-06T02:06:10;8.30;;;2.15;;
49728;SDS011;35617;50.714;7.114;2022-07-06T02:08:39;7.30;;;2.85;;
49728;SDS011;35617;50.714;7.114;2022-07-06T02:11:06;6.40;;;2.33;;
49728;SDS011;35617;50.714;7.114;2022-07-06T02:13:33;5.78;;;2.30;;
49728;SDS011;35617;50.714;7.114;2022-07-06T02:15:59;6.90;;;2.60;;
49728;SDS011;35617;50.714;7.114;2022-07-06T02:18:26;9.10;;;3.08;;
49728;SDS011;35617;50.714;7.114;2022-07-06T02:20:51;7.20;;;2.60;;
49728;SDS011;35617;50.714;7.114;2022-07-06T02:23:17;5.75;;;2.50;;
49728;SDS011;35617;50.714;7.114;2022-07-06T02:25:43;5.10;;;2.38;;
49728;SDS011;35617;50.714;7.114;2022-07-06T02:28:09;4.28;;;2.42;;
49728;SDS011;35617;50.714;7.114;2022-07-06T02:30:34;5.18;;;2.22;;
49728;SDS011;35617;50.714;7.114;2022-07-06T02:33:00;6.75;;;2.40;;
49728;SDS011;35617;50.714;7.114;2022-07-06T02:35:26;6.88;;;3.00;;
49728;SDS011;35617;50.714;7.114;2022-07-06T02:37:51;10.20;;;2.63;;
49728;SDS011;35617;50.714;7.114;2022-07-06T02:40:17;9.50;;;2.85;;
49728;SDS011;35617;50.714;7.114;2022-07-06T02:42:43;6.82;;;2.60;;
49728;SDS011;35617;50.714;7.114;2022-07-06T02:45:08;6.32;;;2.88;;
49728;SDS011;35617;50.714;7.114;2022-07-06T02:47:34;8.45;;;2.70;;
49728;SDS011;35617;50.714;7.114;2022-07-06T02:50:00;8.43;;;2.80;;
49728;SDS011;35617;50.714;7.114;2022-07-06T02:52:26;6.65;;;2.70;;
49728;SDS011;35617;50.714;7.114;2022-07-06T02:54:52;8.88;;;2.83;;
49728;SDS011;35617;50.714;7.114;2022-07-06T02:57:18;5.15;;;2.50;;
49728;SDS011;35617;50.714;7.114;2022-07-06T02:59:44;6.45;;;2.53;;
49728;SDS011;35617;50.714;7.114;2022-07-06T03:02:10;7.40;;;2.97;;
49728;SDS011;35617;50.714;7.114;2022-07-06T03:04:36;7.30;;;2.85;;
49728;SDS011;35617;50.714;7.114;2022-07-06T03:07:02;7.18;;;2.50;;
49728;SDS011;35617;50.714;7.114;2022-07-06T03:09:28;5.53;;;2.58;;
49728;SDS011;35617;50.714;7.114;2022-07-06T03:11:54;7.30;;;3.10;;
49728;SDS011;35617;50.714;7.114;2022-07-06T03:14:20;7.45;;;2.80;;
49728;SDS011;35617;50.714;7.114;2022-07-06T03:16:45;7.68;;;2.90;;
49728;SDS011;35617;50.714;7.114;2022-07-06T03:19:11;5.15;;;2.65;;
49728;SDS011;35617;50.714;7.114;2022-07-06T03:21:37;5.47;;;2.50;;
49728;SDS011;35617;50.714;7.114;2022-07-06T03:24:02;6.95;;;2.63;;
49728;SDS011;35617;50.714;7.114;2022-07-06T03:26:29;7.78;;;2.75;;
49728;SDS011;35617;50.714;7.114;2022-07-06T03:28:54;6.82;;;2.50;;
49728;SDS011;35617;50.714;7.114;2022-07-06T03:31:20;7.20;;;2.80;;
49728;SDS011;35617;50.714;7.114;2022-07-06T03:33:45;6.47;;;2.90;;
49728;SDS011;35617;50.714;7.114;2022-07-06T03:36:11;8.10;;;2.75;;
49728;SDS011;35617;50.714;7.114;2022-07-06T03:38:36;7.65;;;3.10;;
49728;SDS011;35617;50.714;7.114;2022-07-06T03:41:02;8.60;;;2.83;;
49728;SDS011;35617;50.714;7.114;2022-07-06T03:43:28;7.30;;;3.05;;
49728;SDS011;35617;50.714;7.114;2022-07-06T03:45:54;7.20;;;2.47;;
49728;SDS011;35617;50.714;7.114;2022-07-06T03:48:20;6.47;;;2.50;;
49728;SDS011;35617;50.714;7.114;2022-07-06T03:50:45;5.55;;;2.72;;
49728;SDS011;35617;50.714;7.114;2022-07-06T03:53:11;5.97;;;2.60;;
49728;SDS011;35617;50.714;7.114;2022-07-06T03:55:37;5.47;;;2.25;;
49728;SDS011;35617;50.714;7.114;2022-07-06T03:58:02;5.53;;;2.20;;
49728;SDS011;35617;50.714;7.114;2022-07-06T04:00:28;5.65;;;2.65;;
49728;SDS011;35617;50.714;7.114;2022-07-06T04:02:53;5.70;;;2.35;;
49728;SDS011;35617;50.714;7.114;2022-07-06T04:05:19;5.78;;;2.30;;
49728;SDS011;35617;50.714;7.114;2022-07-06T04:07:49;4.85;;;2.35;;
49728;SDS011;35617;50.714;7.114;2022-07-06T04:10:18;6.85;;;2.33;;
49728;SDS011;35617;50.714;7.114;2022-07-06T04:12:44;6.57;;;2.80;;
49728;SDS011;35617;50.714;7.114;2022-07-06T04:15:10;6.60;;;2.80;;
49728;SDS011;35617;50.714;7.114;2022-07-06T04:17:37;7.93;;;3.25;;
49728;SDS011;35617;50.714;7.114;2022-07-06T04:20:18;6.05;;;2.90;;
49728;SDS011;35617;50.714;7.114;2022-07-06T04:22:45;5.78;;;2.53;;
49728;SDS011;35617;50.714;7.114;2022-07-06T04:25:10;6.55;;;2.60;;
49728;SDS011;35617;50.714;7.114;2022-07-06T04:27:36;5.28;;;2.35;;
49728;SDS011;35617;50.714;7.114;2022-07-06T04:30:05;7.03;;;2.40;;
49728;SDS011;35617;50.714;7.114;2022-07-06T04:32:32;9.40;;;2.85;;
49728;SDS011;35617;50.714;7.114;2022-07-06T04:34:58;6.22;;;2.47;;
49728;SDS011;35617;50.714;7.114;2022-07-06T04:37:23;5.95;;;2.47;;
49728;SDS011;35617;50.714;7.114;2022-07-06T04:39:49;6.72;;;2.33;;
49728;SDS011;35617;50.714;7.114;2022-07-06T04:42:15;5.82;;;2.70;;
49728;SDS011;35617;50.714;7.114;2022-07-06T04:44:40;6.28;;;2.67;;
49728;SDS011;35617;50.714;7.114;2022-07-06T04:47:06;7.38;;;2.60;;
49728;SDS011;35617;50.714;7.114;2022-07-06T04:49:32;4.80;;;2.45;;
49728;SDS011;35617;50.714;7.114;2022-07-06T04:51:57;8.73;;;3.22;;
49728;SDS011;35617;50.714;7.114;2022-07-06T04:54:23;8.57;;;2.92;;
49728;SDS011;35617;50.714;7.114;2022-07-06T04:56:49;6.53;;;2.90;;
49728;SDS011;35617;50.714;7.114;2022-07-06T04:59:14;8.18;;;2.85;;
49728;SDS011;35617;50.714;7.114;2022-07-06T05:01:41;6.05;;;2.58;;
49728;SDS011;35617;50.714;7.114;2022-07-06T05:04:07;7.05;;;2.67;;
49728;SDS011;35617;50.714;7.114;2022-07-06T05:06:33;6.95;;;3.20;;
49728;SDS011;35617;50.714;7.114;2022-07-06T05:08:58;7.45;;;2.65;;
49728;SDS011;35617;50.714;7.114;2022-07-06T05:11:24;8.85;;;3.08;;
49728;SDS011;35617;50.714;7.114;2022-07-06T05:13:51;7.82;;;3.15;;
49728;SDS011;35617;50.714;7.114;2022-07-06T05:16:16;7.90;;;3.20;;
49728;SDS011;35617;50.714;7.114;2022-07-06T05:18:42;7.03;;;2.88;;
49728;SDS011;35617;50.714;7.114;2022-07-06T05:21:07;11.07;;;3.03;;
49728;SDS011;35617;50.714;7.114;2022-07-06T05:23:33;8.45;;;3.00;;
49728;SDS011;35617;50.714;7.114;2022-07-06T05:25:59;8.00;;;2.83;;
49728;SDS011;35617;50.714;7.114;2022-07-06T05:28:24;6.32;;;3.03;;
49728;SDS011;35617;50.714;7.114;2022-07-06T05:30:50;7.30;;;2.70;;
49728;SDS011;35617;50.714;7.114;2022-07-06T05:33:16;8.88;;;3.30;;
49728;SDS011;35617;50.714;7.114;2022-07-06T05:35:41;8.23;;;3.15;;
49728;SDS011;35617;50.714;7.114;2022-07-06T05:38:07;8.10;;;2.70;;
49728;SDS011;35617;50.714;7.114;2022-07-06T05:40:32;9.30;;;3.88;;
49728;SDS011;35617;50.714;7.114;2022-07-06T05:42:58;6.50;;;2.80;;
49728;SDS011;35617;50.714;7.114;2022-07-06T05:45:24;7.00;;;3.10;;
49728;SDS011;35617;50.714;7.114;2022-07-06T05:47:50;7.80;;;2.92;;
49728;SDS011;35617;50.714;7.114;2022-07-06T05:50:34;6.75;;;2.83;;
49728;SDS011;35617;50.714;7.114;2022-07-06T05:53:00;7.93;;;2.65;;
49728;SDS011;35617;50.714;7.114;2022-07-06T05:55:28;6.72;;;3.10;;
49728;SDS011;35617;50.714;7.114;2022-07-06T05:57:54;8.23;;;2.90;;
49728;SDS011;35617;50.714;7.114;2022-07-06T06:00:21;5.97;;;2.40;;
49728;SDS011;35617;50.714;7.114;2022-07-06T06:02:49;9.23;;;2.80;;
49728;SDS011;35617;50.714;7.114;2022-07-06T06:05:15;5.28;;;2.28;;
49728;SDS011;35617;50.714;7.114;2022-07-06T06:07:41;7.18;;;3.50;;
49728;SDS011;35617;50.714;7.114;2022-07-06T06:10:09;6.88;;;2.58;;
49728;SDS011;35617;50.714;7.114;2022-07-06T06:12:37;9.18;;;3.00;;
49728;SDS011;35617;50.714;7.114;2022-07-06T06:15:03;6.25;;;2.47;;
49728;SDS011;35617;50.714;7.114;2022-07-06T06:17:30;6.45;;;2.60;;
49728;SDS011;35617;50.714;7.114;2022-07-06T06:19:56;7.40;;;2.50;;
49728;SDS011;35617;50.714;7.114;2022-07-06T06:22:22;6.55;;;2.53;;
49728;SDS011;35617;50.714;7.114;2022-07-06T06:24:48;7.50;;;2.50;;
49728;SDS011;35617;50.714;7.114;2022-07-06T06:27:13;6.65;;;2.58;;
49728;SDS011;35617;50.714;7.114;2022-07-06T06:29:39;6.03;;;2.70;;
49728;SDS011;35617;50.714;7.114;2022-07-06T06:32:07;6.75;;;2.97;;
49728;SDS011;35617;50.714;7.114;2022-07-06T06:34:32;7.60;;;3.05;;
49728;SDS011;35617;50.714;7.114;2022-07-06T06:36:59;10.88;;;3.33;;
49728;SDS011;35617;50.714;7.114;2022-07-06T06:39:24;7.18;;;2.80;;
49728;SDS011;35617;50.714;7.114;2022-07-06T06:41:50;5.95;;;2.80;;
49728;SDS011;35617;50.714;7.114;2022-07-06T06:44:16;6.22;;;2.55;;
49728;SDS011;35617;50.714;7.114;2022-07-06T06:46:42;8.02;;;3.00;;
49728;SDS011;35617;50.714;7.114;2022-07-06T06:49:09;7.28;;;2.63;;
49728;SDS011;35617;50.714;7.114;2022-07-06T06:51:35;7.13;;;3.13;;
49728;SDS011;35617;50.714;7.114;2022-07-06T06:54:02;9.50;;;2.80;;
49728;SDS011;35617;50.714;7.114;2022-07-06T06:56:28;7.45;;;2.92;;
49728;SDS011;35617;50.714;7.114;2022-07-06T06:58:54;6.57;;;2.70;;
49728;SDS011;35617;50.714;7.114;2022-07-06T07:01:20;6.25;;;2.60;;
49728;SDS011;35617;50.714;7.114;2022-07-06T07:03:46;6.55;;;2.92;;
49728;SDS011;35617;50.714;7.114;2022-07-06T07:06:12;7.40;;;2.78;;
49728;SDS011;35617;50.714;7.114;2022-07-06T07:08:37;6.63;;;2.30;;
49728;SDS011;35617;50.714;7.114;2022-07-06T07:11:03;7.63;;;3.15;;
49728;SDS011;35617;50.714;7.114;2022-07-06T07:13:29;7.43;;;2.60;;
49728;SDS011;35617;50.714;7.114;2022-07-06T07:15:54;7.57;;;2.50;;
49728;SDS011;35617;50.714;7.114;2022-07-06T07:18:20;8.52;;;2.63;;
49728;SDS011;35617;50.714;7.114;2022-07-06T07:20:45;5.97;;;2.47;;
49728;SDS011;35617;50.714;7.114;2022-07-06T07:23:11;11.48;;;2.70;;
49728;SDS011;35617;50.714;7.114;2022-07-06T07:25:37;6.30;;;2.50;;
49728;SDS011;35617;50.714;7.114;2022-07-06T07:28:04;6.18;;;2.10;;
49728;SDS011;35617;50.714;7.114;2022-07-06T07:30:30;6.20;;;2.03;;
49728;SDS011;35617;50.714;7.114;2022-07-06T07:32:55;6.43;;;2.10;;
49728;SDS011;35617;50.714;7.114;2022-07-06T07:35:22;7.57;;;2.20;;
49728;SDS011;35617;50.714;7.114;2022-07-06T07:37:50;7.00;;;2.40;;
49728;SDS011;35617;50.714;7.114;2022-07-06T07:40:15;8.57;;;2.35;;
49728;SDS011;35617;50.714;7.114;2022-07-06T07:42:41;8.15;;;2.58;;
49728;SDS011;35617;50.714;7.114;2022-07-06T07:45:08;5.18;;;2.00;;
49728;SDS011;35617;50.714;7.114;2022-07-06T07:47:34;9.07;;;2.95;;
49728;SDS011;35617;50.714;7.114;2022-07-06T07:50:00;5.80;;;1.38;;
49728;SDS011;35617;50.714;7.114;2022-07-06T07:52:26;4.43;;;1.20;;
49728;SDS011;35617;50.714;7.114;2022-07-06T07:54:52;6.88;;;1.50;;
49728;SDS011;35617;50.714;7.114;2022-07-06T07:57:17;4.75;;;1.23;;
49728;SDS011;35617;50.714;7.114;2022-07-06T07:59:46;5.65;;;1.38;;
49728;SDS011;35617;50.714;7.114;2022-07-06T08:02:12;4.82;;;1.25;;
49728;SDS011;35617;50.714;7.114;2022-07-06T08:04:38;5.43;;;1.90;;
49728;SDS011;35617;50.714;7.114;2022-07-06T08:07:08;5.63;;;2.40;;
49728;SDS011;35617;50.714;7.114;2022-07-06T08:09:34;7.68;;;2.42;;
49728;SDS011;35617;50.714;7.114;2022-07-06T08:12:00;6.50;;;2.17;;
49728;SDS011;35617;50.714;7.114;2022-07-06T08:14:26;6.43;;;2.50;;
49728;SDS011;35617;50.714;7.114;2022-07-06T08:16:52;9.40;;;2.80;;
49728;SDS011;35617;50.714;7.114;2022-07-06T08:19:18;6.55;;;2.17;;
49728;SDS011;35617;50.714;7.114;2022-07-06T08:21:44;5.95;;;2.13;;
49728;SDS011;35617;50.714;7.114;2022-07-06T08:24:10;4.93;;;2.28;;
49728;SDS011;35617;50.714;7.114;2022-07-06T08:26:36;7.10;;;2.33;;
49728;SDS011;35617;50.714;7.114;2022-07-06T08:29:05;7.43;;;1.90;;
49728;SDS011;35617;50.714;7.114;2022-07-06T08:31:31;6.43;;;1.80;;
49728;SDS011;35617;50.714;7.114;2022-07-06T08:33:59;8.25;;;1.83;;
49728;SDS011;35617;50.714;7.114;2022-07-06T08:36:24;5.20;;;1.70;;
49728;SDS011;35617;50.714;7.114;2022-07-06T08:38:50;5.05;;;1.77;;
49728;SDS011;35617;50.714;7.114;2022-07-06T08:41:18;4.75;;;1.60;;
49728;SDS011;35617;50.714;7.114;2022-07-06T08:43:47;7.10;;;1.52;;
49728;SDS011;35617;50.714;7.114;2022-07-06T08:46:13;6.65;;;2.00;;
49728;SDS011;35617;50.714;7.114;2022-07-06T08:48:39;5.15;;;1.60;;
49728;SDS011;35617;50.714;7.114;2022-07-06T08:51:06;3.75;;;1.40;;
49728;SDS011;35617;50.714;7.114;2022-07-06T08:53:32;6.38;;;1.60;;
49728;SDS011;35617;50.714;7.114;2022-07-06T08:55:58;7.95;;;1.58;;
49728;SDS011;35617;50.714;7.114;2022-07-06T08:58:24;5.03;;;1.40;;
49728;SDS011;35617;50.714;7.114;2022-07-06T09:00:51;4.50;;;1.40;;
49728;SDS011;35617;50.714;7.114;2022-07-06T09:03:18;4.13;;;1.40;;
49728;SDS011;35617;50.714;7.114;2022-07-06T09:05:45;5.28;;;1.67;;
49728;SDS011;35617;50.714;7.114;2022-07-06T09:08:11;3.97;;;1.67;;
49728;SDS011;35617;50.714;7.114;2022-07-06T09:10:37;4.43;;;1.48;;
49728;SDS011;35617;50.714;7.114;2022-07-06T09:13:04;5.18;;;1.88;;
49728;SDS011;35617;50.714;7.114;2022-07-06T09:15:32;5.60;;;2.00;;
49728;SDS011;35617;50.714;7.114;2022-07-06T09:17:59;3.47;;;1.30;;
49728;SDS011;35617;50.714;7.114;2022-07-06T09:20:24;7.30;;;1.40;;
49728;SDS011;35617;50.714;7.114;2022-07-06T09:22:50;6.95;;;1.70;;
49728;SDS011;35617;50.714;7.114;2022-07-06T09:25:22;5.28;;;1.20;;
49728;SDS011;35617;50.714;7.114;2022-07-06T09:27:50;4.15;;;1.27;;
49728;SDS011;35617;50.714;7.114;2022-07-06T09:30:19;5.43;;;1.38;;
49728;SDS011;35617;50.714;7.114;2022-07-06T09:32:48;5.00;;;1.15;;
49728;SDS011;35617;50.714;7.114;2022-07-06T09:38:07;5.55;;;1.30;;
49728;SDS011;35617;50.714;7.114;2022-07-06T09:40:35;4.13;;;1.30;;
49728;SDS011;35617;50.714;7.114;2022-07-06T09:45:45;3.67;;;1.17;;
49728;SDS011;35617;50.714;7.114;2022-07-06T09:48:14;4.57;;;1.40;;
49728;SDS011;35617;50.714;7.114;2022-07-06T09:50:46;4.20;;;1.30;;
49728;SDS011;35617;50.714;7.114;2022-07-06T09:53:13;6.28;;;1.45;;
49728;SDS011;35617;50.714;7.114;2022-07-06T09:55:44;4.35;;;1.50;;
49728;SDS011;35617;50.714;7.114;2022-07-06T09:58:10;5.20;;;1.27;;
49728;SDS011;35617;50.714;7.114;2022-07-06T10:00:36;4.70;;;1.40;;
49728;SDS011;35617;50.714;7.114;2022-07-06T10:03:03;4.32;;;1.17;;
49728;SDS011;35617;50.714;7.114;2022-07-06T10:05:30;4.53;;;1.30;;
49728;SDS011;35617;50.714;7.114;2022-07-06T10:07:58;4.13;;;1.20;;
49728;SDS011;35617;50.714;7.114;2022-07-06T10:10:28;4.75;;;1.35;;
49728;SDS011;35617;50.714;7.114;2022-07-06T10:12:55;4.47;;;1.50;;
49728;SDS011;35617;50.714;7.114;2022-07-06T10:15:30;4.65;;;1.30;;
49728;SDS011;35617;50.714;7.114;2022-07-06T10:17:57;5.60;;;1.58;;
49728;SDS011;35617;50.714;7.114;2022-07-06T10:20:23;6.38;;;1.38;;
49728;SDS011;35617;50.714;7.114;2022-07-06T10:22:53;3.92;;;1.10;;
49728;SDS011;35617;50.714;7.114;2022-07-06T10:25:22;4.80;;;1.15;;
49728;SDS011;35617;50.714;7.114;2022-07-06T10:27:49;3.63;;;1.05;;
49728;SDS011;35617;50.714;7.114;2022-07-06T10:30:16;4.55;;;1.40;;
49728;SDS011;35617;50.714;7.114;2022-07-06T10:32:43;3.75;;;1.02;;
49728;SDS011;35617;50.714;7.114;2022-07-06T10:35:10;5.28;;;1.80;;
49728;SDS011;35617;50.714;7.114;2022-07-06T10:37:37;5.35;;;1.70;;
49728;SDS011;35617;50.714;7.114;2022-07-06T10:40:03;6.47;;;1.77;;
49728;SDS011;35617;50.714;7.114;2022-07-06T10:42:49;5.07;;;1.85;;
49728;SDS011;35617;50.714;7.114;2022-07-06T10:50:38;4.65;;;1.35;;
49728;SDS011;35617;50.714;7.114;2022-07-06T10:53:15;4.85;;;1.10;;
49728;SDS011;35617;50.714;7.114;2022-07-06T10:55:43;4.88;;;1.38;;
49728;SDS011;35617;50.714;7.114;2022-07-06T10:58:12;6.25;;;1.60;;
49728;SDS011;35617;50.714;7.114;2022-07-06T11:00:48;4.53;;;1.25;;
49728;SDS011;35617;50.714;7.114;2022-07-06T11:06:06;4.85;;;1.52;;
49728;SDS011;35617;50.714;7.114;2022-07-06T11:14:01;4.63;;;1.10;;
49728;SDS011;35617;50.714;7.114;2022-07-06T11:16:30;4.10;;;1.17;;
49728;SDS011;35617;50.714;7.114;2022-07-06T11:19:11;4.45;;;1.38;;
49728;SDS011;35617;50.714;7.114;2022-07-06T11:21:44;4.53;;;1.60;;
49728;SDS011;35617;50.714;7.114;2022-07-06T11:24:14;4.05;;;2.05;;
49728;SDS011;35617;50.714;7.114;2022-07-06T11:26:46;5.63;;;1.70;;
49728;SDS011;35617;50.714;7.114;2022-07-06T11:29:16;4.38;;;1.70;;
49728;SDS011;35617;50.714;7.114;2022-07-06T11:31:44;6.45;;;1.80;;
49728;SDS011;35617;50.714;7.114;2022-07-06T11:34:11;5.47;;;2.10;;
49728;SDS011;35617;50.714;7.114;2022-07-06T11:36:39;4.38;;;1.40;;
49728;SDS011;35617;50.714;7.114;2022-07-06T11:39:05;3.78;;;1.10;;
49728;SDS011;35617;50.714;7.114;2022-07-06T11:41:31;4.00;;;1.58;;
49728;SDS011;35617;50.714;7.114;2022-07-06T11:43:57;3.95;;;1.13;;
49728;SDS011;35617;50.714;7.114;2022-07-06T11:46:30;4.80;;;1.60;;
49728;SDS011;35617;50.714;7.114;2022-07-06T11:49:02;5.50;;;1.75;;
49728;SDS011;35617;50.714;7.114;2022-07-06T11:51:30;7.07;;;1.60;;
49728;SDS011;35617;50.714;7.114;2022-07-06T11:54:01;6.85;;;1.75;;
49728;SDS011;35617;50.714;7.114;2022-07-06T11:56:32;4.35;;;1.30;;
49728;SDS011;35617;50.714;7.114;2022-07-06T11:58:58;4.93;;;1.40;;
49728;SDS011;35617;50.714;7.114;2022-07-06T12:01:27;5.13;;;1.10;;
49728;SDS011;35617;50.714;7.114;2022-07-06T12:03:59;5.38;;;1.25;;
49728;SDS011;35617;50.714;7.114;2022-07-06T12:06:29;4.72;;;1.30;;
49728;SDS011;35617;50.714;7.114;2022-07-06T12:08:58;5.05;;;1.40;;
49728;SDS011;35617;50.714;7.114;2022-07-06T12:11:29;3.97;;;1.30;;
49728;SDS011;35617;50.714;7.114;2022-07-06T12:13:57;4.47;;;1.10;;
49728;SDS011;35617;50.714;7.114;2022-07-06T12:16:31;5.25;;;1.30;;
49728;SDS011;35617;50.714;7.114;2022-07-06T12:19:02;3.75;;;1.10;;
49728;SDS011;35617;50.714;7.114;2022-07-06T12:21:29;5.63;;;1.20;;
49728;SDS011;35617;50.714;7.114;2022-07-06T12:23:55;4.70;;;1.25;;
49728;SDS011;35617;50.714;7.114;2022-07-06T12:26:24;4.40;;;1.35;;
49728;SDS011;35617;50.714;7.114;2022-07-06T12:29:05;4.85;;;1.20;;
49728;SDS011;35617;50.714;7.114;2022-07-06T12:31:38;3.45;;;1.25;;
49728;SDS011;35617;50.714;7.114;2022-07-06T12:34:11;4.32;;;1.50;;
49728;SDS011;35617;50.714;7.114;2022-07-06T12:36:52;4.55;;;1.50;;
49728;SDS011;35617;50.714;7.114;2022-07-06T12:39:27;3.67;;;1.20;;
49728;SDS011;35617;50.714;7.114;2022-07-06T12:42:01;3.30;;;1.10;;
49728;SDS011;35617;50.714;7.114;2022-07-06T12:44:28;6.57;;;1.30;;
49728;SDS011;35617;50.714;7.114;2022-07-06T12:49:29;3.38;;;1.17;;
49728;SDS011;35617;50.714;7.114;2022-07-06T12:54:23;6.63;;;1.30;;
49728;SDS011;35617;50.714;7.114;2022-07-06T12:56:57;3.70;;;1.10;;
49728;SDS011;35617;50.714;7.114;2022-07-06T12:59:24;6.05;;;1.30;;
49728;SDS011;35617;50.714;7.114;2022-07-06T13:01:51;4.03;;;1.05;;
49728;SDS011;35617;50.714;7.114;2022-07-06T13:04:21;5.88;;;1.25;;
49728;SDS011;35617;50.714;7.114;2022-07-06T13:06:47;4.38;;;1.23;;
49728;SDS011;35617;50.714;7.114;2022-07-06T13:09:12;5.38;;;1.30;;
49728;SDS011;35617;50.714;7.114;2022-07-06T13:11:39;5.93;;;1.05;;
49728;SDS011;35617;50.714;7.114;2022-07-06T13:14:05;5.35;;;1.35;;
49728;SDS011;35617;50.714;7.114;2022-07-06T13:16:31;6.22;;;1.10;;
49728;SDS011;35617;50.714;7.114;2022-07-06T13:18:59;5.57;;;1.52;;
49728;SDS011;35617;50.714;7.114;2022-07-06T13:21:25;5.00;;;1.30;;
49728;SDS011;35617;50.714;7.114;2022-07-06T13:23:51;4.88;;;1.10;;
49728;SDS011;35617;50.714;7.114;2022-07-06T13:26:17;5.47;;;1.23;;
49728;SDS011;35617;50.714;7.114;2022-07-06T13:28:43;2.75;;;0.98;;
49728;SDS011;35617;50.714;7.114;2022-07-06T13:31:08;5.45;;;1.35;;
49728;SDS011;35617;50.714;7.114;2022-07-06T13:33:34;4.43;;;1.40;;
49728;SDS011;35617;50.714;7.114;2022-07-06T13:36:00;5.15;;;1.20;;
49728;SDS011;35617;50.714;7.114;2022-07-06T13:38:27;5.10;;;0.93;;
49728;SDS011;35617;50.714;7.114;2022-07-06T13:40:53;5.20;;;1.13;;
49728;SDS011;35617;50.714;7.114;2022-07-06T13:43:19;4.82;;;1.00;;
49728;SDS011;35617;50.714;7.114;2022-07-06T13:45:50;6.07;;;1.10;;
49728;SDS011;35617;50.714;7.114;2022-07-06T13:48:16;4.05;;;1.17;;
49728;SDS011;35617;50.714;7.114;2022-07-06T13:50:42;3.88;;;1.17;;
49728;SDS011;35617;50.714;7.114;2022-07-06T13:53:07;5.10;;;1.40;;
49728;SDS011;35617;50.714;7.114;2022-07-06T13:55:36;4.57;;;1.30;;
49728;SDS011;35617;50.714;7.114;2022-07-06T13:58:04;3.70;;;1.10;;
49728;SDS011;35617;50.714;7.114;2022-07-06T14:00:30;3.60;;;1.15;;
49728;SDS011;35617;50.714;7.114;2022-07-06T14:02:56;5.82;;;1.17;;
49728;SDS011;35617;50.714;7.114;2022-07-06T14:05:22;4.28;;;1.17;;
49728;SDS011;35617;50.714;7.114;2022-07-06T14:07:48;6.05;;;1.45;;
49728;SDS011;35617;50.714;7.114;2022-07-06T14:10:15;5.30;;;1.63;;
49728;SDS011;35617;50.714;7.114;2022-07-06T14:12:41;4.30;;;1.20;;
49728;SDS011;35617;50.714;7.114;2022-07-06T14:15:07;6.32;;;1.73;;
49728;SDS011;35617;50.714;7.114;2022-07-06T14:17:33;3.35;;;1.10;;
49728;SDS011;35617;50.714;7.114;2022-07-06T14:19:59;4.63;;;0.98;;
49728;SDS011;35617;50.714;7.114;2022-07-06T14:22:25;4.45;;;1.20;;
49728;SDS011;35617;50.714;7.114;2022-07-06T14:24:53;4.78;;;1.10;;
49728;SDS011;35617;50.714;7.114;2022-07-06T14:27:18;3.78;;;0.90;;
49728;SDS011;35617;50.714;7.114;2022-07-06T14:29:44;5.90;;;1.05;;
49728;SDS011;35617;50.714;7.114;2022-07-06T14:32:10;4.35;;;1.10;;
49728;SDS011;35617;50.714;7.114;2022-07-06T14:34:36;4.30;;;1.02;;
49728;SDS011;35617;50.714;7.114;2022-07-06T14:37:02;6.30;;;1.20;;
49728;SDS011;35617;50.714;7.114;2022-07-06T14:39:28;3.33;;;0.80;;
49728;SDS011;35617;50.714;7.114;2022-07-06T14:41:54;5.88;;;1.00;;
49728;SDS011;35617;50.714;7.114;2022-07-06T14:44:19;4.35;;;1.10;;
49728;SDS011;35617;50.714;7.114;2022-07-06T14:46:45;4.15;;;1.10;;
49728;SDS011;35617;50.714;7.114;2022-07-06T14:49:10;2.60;;;0.70;;
49728;SDS011;35617;50.714;7.114;2022-07-06T14:51:36;5.68;;;1.20;;
49728;SDS011;35617;50.714;7.114;2022-07-06T14:54:02;5.38;;;1.10;;
49728;SDS011;35617;50.714;7.114;2022-07-06T14:56:27;4.43;;;0.80;;
49728;SDS011;35617;50.714;7.114;2022-07-06T14:58:54;4.82;;;1.10;;
49728;SDS011;35617;50.714;7.114;2022-07-06T15:01:19;3.55;;;0.95;;
49728;SDS011;35617;50.714;7.114;2022-07-06T15:03:45;4.53;;;1.10;;
49728;SDS011;35617;50.714;7.114;2022-07-06T15:06:11;2.83;;;0.80;;
49728;SDS011;35617;50.714;7.114;2022-07-06T15:08:36;3.88;;;0.90;;
49728;SDS011;35617;50.714;7.114;2022-07-06T15:11:02;3.17;;;0.70;;